Time;durP1;ratioP1;P1;durP2;ratioP2;P2;SDS_P1;SDS_P2;PMS_P1;PMS_P2;Temp;Humidity;BMP_temperature;BMP_pressure;BME280_temperature;BME280_humidity;BME280_pressure;Samples;Min_cycle;Max_cycle;Signal;HPM_P1;HPM_P2
2022/12/31 00:01:16;;;;;;;;;;;;;;;10.10;86.14;97734.50;5113709;27;20284;-68
2022/12/31 00:03:45;;;;;;;;;;;;;;;10.03;86.03;97726.03;5112835;28;19924;-68
2022/12/31 00:06:14;;;;;;;;;;;;;;;10.12;85.50;97729.59;5115876;28;19972;-69
2022/12/31 00:08:43;;;;;;;;;;;;;;;10.22;85.36;97728.50;5113855;28;19923;-69
2022/12/31 00:11:11;;;;;;;;;;;;;;;10.10;85.78;97737.22;5131054;27;19923;-69
2022/12/31 00:13:39;;;;;;;;;;;;;;;10.16;85.30;97733.25;5093553;28;19924;-68
2022/12/31 00:16:08;;;;;;;;;;;;;;;10.18;85.24;97731.06;5106929;27;19931;-69
2022/12/31 00:18:38;;;;;;;;;;;;;;;10.13;85.53;97723.03;5119881;27;19992;-68
2022/12/31 00:21:32;;;;;;;;;;;;;;;10.36;84.53;97715.66;5105285;28;20284;-68
2022/12/31 00:24:01;;;;;;;;;;;;;;;10.27;84.73;97716.72;5099029;28;19924;-69
2022/12/31 00:29:26;;;;;;;;;;;;;;;10.19;85.32;97721.78;5121642;27;22142;-69
2022/12/31 00:31:54;;;;;;;;;;;;;;;10.27;85.00;97727.59;5106799;28;20407;-69
2022/12/31 00:34:22;;;;;;;;;;;;;;;10.22;85.07;97731.22;5104655;28;20376;-69
2022/12/31 00:36:50;;;;;;;;;;;;;;;10.26;85.00;97734.94;5112685;28;19935;-68
2022/12/31 00:39:19;;;;;;;;;;;;;;;10.29;85.10;97728.88;5084736;28;20316;-69
2022/12/31 00:41:48;;;;;;;;;;;;;;;10.27;85.21;97739.25;5113352;28;20338;-69
2022/12/31 00:44:16;;;;;;;;;;;;;;;10.22;85.41;97731.22;5094723;28;19931;-70
2022/12/31 00:46:44;;;;;;;;;;;;;;;10.37;84.82;97741.69;5092052;28;19924;-68
2022/12/31 00:49:38;;;;;;;;;;;;;;;10.47;84.18;97749.56;5087553;28;19977;-68
2022/12/31 00:52:06;;;;;;;;;;;;;;;10.30;84.68;97746.78;5089779;28;20023;-69
2022/12/31 00:54:36;;;;;;;;;;;;;;;10.42;84.40;97752.41;5084835;28;19977;-69
2022/12/31 00:57:04;;;;;;;;;;;;;;;10.44;84.27;97750.19;5085544;28;19932;-69
2022/12/31 00:59:32;;;;;;;;;;;;;;;10.46;84.28;97747.97;5105802;28;19924;-69
2022/12/31 01:02:00;;;;;;;;;;;;;;;10.43;84.43;97758.63;5095127;28;19955;-69
2022/12/31 01:04:28;;;;;;;;;;;;;;;10.52;84.00;97762.19;5100483;28;19931;-69
2022/12/31 01:06:58;;;;;;;;;;;;;;;10.43;84.42;97764.06;5090221;28;20270;-69
2022/12/31 01:09:27;;;;;;;;;;;;;;;10.56;84.06;97770.53;5094050;28;19924;-69
2022/12/31 01:11:56;;;;;;;;;;;;;;;10.71;83.36;97781.75;5091925;28;19924;-68
2022/12/31 01:14:24;;;;;;;;;;;;;;;10.52;84.01;97786.63;5099413;28;19947;-69
2022/12/31 01:16:54;;;;;;;;;;;;;;;10.54;84.12;97783.59;5092225;28;20059;-69
2022/12/31 01:19:22;;;;;;;;;;;;;;;10.62;84.01;97788.28;5092597;28;19928;-69
2022/12/31 01:21:51;;;;;;;;;;;;;;;10.76;83.61;97794.41;5093632;28;19931;-69
2022/12/31 01:24:19;;;;;;;;;;;;;;;10.79;83.20;97796.47;5094623;28;19931;-70
2022/12/31 01:30:32;;;;;;;;;;;;;;;10.91;83.10;97796.66;5073865;28;19931;-72
2022/12/31 01:33:00;;;;;;;;;;;;;;;11.06;82.49;97797.34;5086090;28;20334;-73
2022/12/31 01:35:28;;;;;;;;;;;;;;;11.07;82.30;97790.78;5073824;28;19939;-72
2022/12/31 01:37:56;;;;;;;;;;;;;;;11.20;81.78;97792.59;5073973;28;20310;-72
2022/12/31 01:40:24;;;;;;;;;;;;;;;11.34;81.19;97801.38;5071665;28;19932;-72
2022/12/31 01:42:55;;;;;;;;;;;;;;;11.30;81.56;97818.69;5073872;28;19925;-72
2022/12/31 01:45:24;;;;;;;;;;;;;;;11.34;81.42;97814.97;5074255;28;20378;-72
2022/12/31 01:48:17;;;;;;;;;;;;;;;11.35;81.81;97813.09;5053367;28;19925;-73
2022/12/31 01:50:47;;;;;;;;;;;;;;;11.35;81.95;97827.47;5069105;28;19925;-72
2022/12/31 01:53:15;;;;;;;;;;;;;;;11.36;82.40;97831.00;5074088;28;19924;-73
2022/12/31 01:55:45;;;;;;;;;;;;;;;11.28;82.92;97819.78;5073948;28;19924;-72
2022/12/31 01:58:20;;;;;;;;;;;;;;;11.33;83.07;97829.69;5089179;28;19928;-72
2022/12/31 02:00:48;;;;;;;;;;;;;;;11.32;83.49;97825.38;5089495;28;19931;-77
2022/12/31 02:03:16;;;;;;;;;;;;;;;11.33;83.59;97832.41;5074213;28;19932;-77
2022/12/31 02:05:46;;;;;;;;;;;;;;;11.27;84.23;97830.97;5073508;28;19925;-77
2022/12/31 02:08:17;;;;;;;;;;;;;;;11.22;84.43;97829.19;5056145;28;20440;-78
2022/12/31 02:10:45;;;;;;;;;;;;;;;11.25;84.54;97830.50;5076762;28;19928;-78
2022/12/31 02:16:07;;;;;;;;;;;;;;;11.28;84.51;97824.41;5082779;28;19928;-80
2022/12/31 02:18:36;;;;;;;;;;;;;;;11.28;84.53;97827.13;5091949;28;19956;-78
2022/12/31 02:21:22;;;;;;;;;;;;;;;11.31;84.46;97834.66;5061017;28;19943;-78
2022/12/31 02:24:24;;;;;;;;;;;;;;;11.45;84.14;97826.34;5077489;28;20294;-78
2022/12/31 02:26:57;;;;;;;;;;;;;;;11.31;84.18;97831.16;5086547;28;19924;-76
2022/12/31 02:29:50;;;;;;;;;;;;;;;11.37;84.21;97841.56;5069311;28;19924;-75
2022/12/31 02:32:20;;;;;;;;;;;;;;;11.50;83.88;97834.34;5085160;28;20303;-76
2022/12/31 02:34:50;;;;;;;;;;;;;;;11.43;84.11;97825.88;5071150;28;20371;-75
2022/12/31 02:37:18;;;;;;;;;;;;;;;11.39;83.99;97833.88;5054683;28;19924;-78
2022/12/31 02:39:46;;;;;;;;;;;;;;;11.45;84.06;97838.06;5089077;28;20397;-78
2022/12/31 02:42:14;;;;;;;;;;;;;;;11.48;84.01;97815.63;5073152;28;19924;-78
2022/12/31 02:44:43;;;;;;;;;;;;;;;11.51;83.95;97825.91;5088738;28;19967;-78
2022/12/31 02:47:26;;;;;;;;;;;;;;;11.51;84.04;97828.63;5073639;28;19928;-78
2022/12/31 02:50:05;;;;;;;;;;;;;;;11.47;84.18;97832.28;5073667;28;19925;-78
2022/12/31 02:52:36;;;;;;;;;;;;;;;11.45;84.46;97837.22;5053893;28;19933;-78
2022/12/31 02:55:07;;;;;;;;;;;;;;;11.42;84.58;97838.69;5072879;28;20287;-78
2022/12/31 02:57:37;;;;;;;;;;;;;;;11.47;84.49;97840.44;5076412;28;19932;-78
2022/12/31 03:02:53;;;;;;;;;;;;;;;11.53;84.12;97848.13;5074559;28;19929;-78
2022/12/31 03:05:22;;;;;;;;;;;;;;;11.46;84.55;97847.81;5072087;28;20351;-75
2022/12/31 03:07:51;;;;;;;;;;;;;;;11.47;85.10;97843.97;5071302;28;19925;-75
2022/12/31 03:10:19;;;;;;;;;;;;;;;11.43;84.94;97850.34;5070976;28;20371;-75
2022/12/31 03:12:47;;;;;;;;;;;;;;;11.44;85.21;97850.03;5048009;28;19982;-75
2022/12/31 03:18:10;;;;;;;;;;;;;;;11.52;84.74;97862.88;5070517;28;19924;-75
2022/12/31 03:26:47;;;;;;;;;;;;;;;11.41;84.74;97833.56;5071949;28;19939;-75
2022/12/31 03:29:15;;;;;;;;;;;;;;;11.31;85.12;97839.31;5066949;28;20000;-75
2022/12/31 03:31:43;;;;;;;;;;;;;;;11.19;85.38;97848.88;5069538;28;19924;-72
2022/12/31 03:34:14;;;;;;;;;;;;;;;11.20;85.66;97836.09;5067909;28;19929;-72
2022/12/31 03:36:42;;;;;;;;;;;;;;;11.09;85.48;97837.50;5053436;28;20326;-72
2022/12/31 03:39:10;;;;;;;;;;;;;;;11.08;85.41;97849.47;5067099;28;19960;-72
2022/12/31 03:41:38;;;;;;;;;;;;;;;11.16;84.91;97848.72;5071711;28;19928;-72
2022/12/31 03:44:06;;;;;;;;;;;;;;;10.98;85.15;97845.94;5072436;28;19925;-72
2022/12/31 03:49:25;;;;;;;;;;;;;;;11.16;84.25;97849.50;5126111;22;20015;-74
2022/12/31 03:51:53;;;;;;;;;;;;;;;11.26;83.75;97851.13;5039257;28;20019;-74
2022/12/31 03:54:21;;;;;;;;;;;;;;;11.33;83.40;97846.03;5047316;28;19932;-75
2022/12/31 03:56:50;;;;;;;;;;;;;;;11.31;83.18;97848.28;5051173;28;19932;-75
2022/12/31 03:59:22;;;;;;;;;;;;;;;11.28;83.32;97851.59;5055281;28;19932;-75
2022/12/31 04:01:50;;;;;;;;;;;;;;;11.36;82.82;97848.13;5049563;28;19928;-75
2022/12/31 04:04:18;;;;;;;;;;;;;;;11.41;82.56;97847.97;5047011;28;19933;-75
2022/12/31 04:06:47;;;;;;;;;;;;;;;11.38;82.50;97842.34;5031338;28;19933;-76
2022/12/31 04:09:15;;;;;;;;;;;;;;;11.38;82.18;97840.44;5028996;28;19929;-75
2022/12/31 04:11:43;;;;;;;;;;;;;;;11.38;81.87;97851.31;5032226;28;19963;-75
2022/12/31 04:14:13;;;;;;;;;;;;;;;11.28;82.21;97849.69;5040048;28;19925;-73
2022/12/31 04:16:41;;;;;;;;;;;;;;;11.25;82.02;97860.41;5039382;28;20458;-73
2022/12/31 04:19:09;;;;;;;;;;;;;;;11.13;82.38;97863.75;5033109;28;19929;-74
2022/12/31 04:21:37;;;;;;;;;;;;;;;11.09;82.61;97864.69;5035131;28;20327;-75
2022/12/31 04:24:07;;;;;;;;;;;;;;;10.96;83.18;97858.25;5050820;28;20699;-75
2022/12/31 04:26:35;;;;;;;;;;;;;;;11.23;82.07;97870.78;5055310;28;19930;-75
2022/12/31 04:29:03;;;;;;;;;;;;;;;11.33;81.42;97869.69;5032364;28;19925;-75
2022/12/31 04:31:32;;;;;;;;;;;;;;;11.36;81.29;97880.75;5032659;28;19925;-75
2022/12/31 04:33:59;;;;;;;;;;;;;;;11.42;80.84;97879.47;5064439;28;19931;-80
2022/12/31 04:36:53;;;;;;;;;;;;;;;11.33;81.32;97884.09;5056336;28;19920;-80
2022/12/31 04:39:23;;;;;;;;;;;;;;;11.44;80.48;97863.63;5071821;28;19909;-80
2022/12/31 04:41:50;;;;;;;;;;;;;;;11.30;81.27;97865.72;5068385;28;19929;-83
2022/12/31 04:44:19;;;;;;;;;;;;;;;11.39;80.78;97871.16;5079030;28;19924;-81
2022/12/31 04:46:47;;;;;;;;;;;;;;;11.39;80.56;97882.81;5060529;28;19925;-80
2022/12/31 04:49:40;;;;;;;;;;;;;;;11.37;80.81;97884.28;5056326;28;19924;-80
2022/12/31 04:52:08;;;;;;;;;;;;;;;11.35;80.72;97883.81;5052129;28;19992;-80
2022/12/31 04:54:38;;;;;;;;;;;;;;;11.26;80.99;97884.56;5057596;28;19925;-80
2022/12/31 04:57:06;;;;;;;;;;;;;;;11.21;81.14;97890.16;5076699;28;19964;-76
2022/12/31 04:59:35;;;;;;;;;;;;;;;11.31;80.50;97886.34;5054321;28;19924;-76
2022/12/31 05:02:03;;;;;;;;;;;;;;;11.26;80.76;97879.13;5053379;28;19925;-77
2022/12/31 05:04:33;;;;;;;;;;;;;;;11.25;80.71;97882.19;5052424;28;19925;-77
2022/12/31 05:07:01;;;;;;;;;;;;;;;11.25;80.80;97888.41;5038459;28;20326;-75
2022/12/31 05:09:29;;;;;;;;;;;;;;;11.26;80.47;97878.34;5041784;28;20474;-75
2022/12/31 05:11:59;;;;;;;;;;;;;;;11.16;80.68;97894.94;5052594;28;20276;-78
2022/12/31 05:14:27;;;;;;;;;;;;;;;11.00;81.35;97889.13;5037284;28;19932;-79
2022/12/31 05:16:57;;;;;;;;;;;;;;;10.98;81.73;97884.00;5037304;28;19979;-79
2022/12/31 05:19:25;;;;;;;;;;;;;;;10.83;82.03;97892.56;5047598;28;19925;-77
2022/12/31 05:24:35;;;;;;;;;;;;;;;10.77;82.12;97893.84;5052884;28;19932;-76
2022/12/31 05:27:05;;;;;;;;;;;;;;;10.69;82.70;97886.44;5052467;28;19924;-75
2022/12/31 05:29:32;;;;;;;;;;;;;;;10.66;82.71;97901.44;5055178;28;19925;-75
2022/12/31 05:32:01;;;;;;;;;;;;;;;10.90;81.75;97909.22;5048413;28;19928;-78
2022/12/31 05:34:53;;;;;;;;;;;;;;;11.12;81.03;97905.63;5059761;28;20379;-78
2022/12/31 05:37:22;;;;;;;;;;;;;;;11.09;80.78;97910.91;5046442;28;20356;-79
2022/12/31 05:39:50;;;;;;;;;;;;;;;11.28;80.02;97898.63;5082396;28;19921;-80
2022/12/31 05:42:20;;;;;;;;;;;;;;;11.13;80.56;97901.81;5054573;28;19925;-76
2022/12/31 05:44:49;;;;;;;;;;;;;;;11.14;80.56;97899.91;5058302;28;19924;-76
2022/12/31 05:47:19;;;;;;;;;;;;;;;11.26;79.94;97902.81;5060352;28;19970;-79
2022/12/31 05:49:47;;;;;;;;;;;;;;;11.19;80.18;97897.03;5043516;28;19929;-77
2022/12/31 05:52:15;;;;;;;;;;;;;;;11.20;80.15;97912.22;5040086;28;19933;-77
2022/12/31 05:54:43;;;;;;;;;;;;;;;11.25;79.58;97915.59;5058125;28;19928;-77
2022/12/31 05:57:11;;;;;;;;;;;;;;;11.39;79.37;97920.91;5039100;28;19929;-77
2022/12/31 05:59:40;;;;;;;;;;;;;;;11.28;79.52;97927.75;5059025;28;19925;-77
2022/12/31 06:02:08;;;;;;;;;;;;;;;11.20;79.89;97923.09;5055288;28;20439;-77
2022/12/31 06:04:36;;;;;;;;;;;;;;;11.22;79.75;97926.31;5053844;28;19925;-76
2022/12/31 06:07:04;;;;;;;;;;;;;;;11.27;79.68;97926.16;5049234;28;19936;-77
2022/12/31 06:09:32;;;;;;;;;;;;;;;11.28;79.74;97925.03;5049093;28;19943;-76
2022/12/31 06:12:00;;;;;;;;;;;;;;;11.18;79.84;97933.47;5059825;28;19995;-77
2022/12/31 06:14:27;;;;;;;;;;;;;;;11.16;80.06;97930.28;5039603;28;19932;-79
2022/12/31 06:16:57;;;;;;;;;;;;;;;11.25;80.05;97931.13;5061341;28;19936;-79
2022/12/31 06:19:25;;;;;;;;;;;;;;;11.22;79.62;97937.19;5034781;28;19925;-78
2022/12/31 06:21:56;;;;;;;;;;;;;;;11.38;78.93;97941.06;5047774;28;20340;-79
2022/12/31 06:24:24;;;;;;;;;;;;;;;11.38;78.86;97932.13;5046922;28;19929;-78
2022/12/31 06:26:55;;;;;;;;;;;;;;;11.39;78.69;97937.22;5054468;28;19979;-78
2022/12/31 06:29:24;;;;;;;;;;;;;;;11.50;78.40;97930.41;5058968;28;19924;-78
2022/12/31 06:31:51;;;;;;;;;;;;;;;11.42;78.56;97933.88;5033531;28;19929;-78
2022/12/31 06:34:21;;;;;;;;;;;;;;;11.36;78.75;97937.88;5045101;28;20346;-76
2022/12/31 06:37:12;;;;;;;;;;;;;;;11.41;78.67;97924.13;5024516;28;19925;-74
2022/12/31 06:39:40;;;;;;;;;;;;;;;11.25;79.08;97931.94;5036616;28;19932;-74
2022/12/31 06:42:08;;;;;;;;;;;;;;;11.43;78.70;97937.41;5048491;28;20443;-75
2022/12/31 06:44:37;;;;;;;;;;;;;;;11.37;78.61;97934.03;5050025;28;20000;-75
2022/12/31 06:50:22;;;;;;;;;;;;;;;11.47;78.72;97944.63;5029575;28;19925;-76
2022/12/31 06:52:50;;;;;;;;;;;;;;;11.62;78.00;97943.38;5048342;28;20043;-77
2022/12/31 06:55:43;;;;;;;;;;;;;;;11.70;77.55;97955.41;5038061;28;19939;-76
2022/12/31 06:58:12;;;;;;;;;;;;;;;11.53;78.25;97956.16;5014679;28;19925;-75
2022/12/31 07:00:39;;;;;;;;;;;;;;;11.55;77.99;97945.75;5044068;28;20280;-76
2022/12/31 07:03:15;;;;;;;;;;;;;;;11.58;78.06;97960.66;5055434;28;19931;-76
2022/12/31 07:05:46;;;;;;;;;;;;;;;11.58;78.10;97956.03;5047774;28;19928;-76
2022/12/31 07:08:17;;;;;;;;;;;;;;;11.76;77.47;97956.84;5048144;28;19932;-76
2022/12/31 07:10:47;;;;;;;;;;;;;;;11.79;77.24;97950.78;5034597;28;19978;-76
2022/12/31 07:13:39;;;;;;;;;;;;;;;11.79;77.48;97951.56;5033478;28;19925;-73
2022/12/31 07:16:10;;;;;;;;;;;;;;;11.74;77.52;97950.94;5020646;28;19937;-74
2022/12/31 07:18:39;;;;;;;;;;;;;;;11.54;78.29;97958.56;5031432;28;20376;-73
2022/12/31 07:21:10;;;;;;;;;;;;;;;11.62;78.34;97957.00;5044709;28;20015;-73
2022/12/31 07:23:38;;;;;;;;;;;;;;;11.80;77.76;97971.44;5046414;28;19925;-75
2022/12/31 07:26:06;;;;;;;;;;;;;;;11.66;77.92;97965.31;5033843;28;19924;-75
2022/12/31 07:28:38;;;;;;;;;;;;;;;11.56;78.46;97969.16;5039828;28;20283;-75
2022/12/31 07:31:07;;;;;;;;;;;;;;;11.49;79.03;97968.78;5044414;28;19928;-75
2022/12/31 07:33:39;;;;;;;;;;;;;;;11.50;78.80;97978.53;5048273;28;20375;-76
2022/12/31 07:36:12;;;;;;;;;;;;;;;11.46;78.99;97981.13;5048243;28;19928;-77
2022/12/31 07:38:41;;;;;;;;;;;;;;;11.59;79.00;97967.69;5053644;28;19932;-74
2022/12/31 07:41:13;;;;;;;;;;;;;;;11.61;78.69;97988.06;5046445;28;19924;-74
2022/12/31 07:43:45;;;;;;;;;;;;;;;11.50;79.15;97987.53;5031757;28;19948;-77
2022/12/31 07:46:13;;;;;;;;;;;;;;;11.50;79.12;98005.75;5029119;28;19932;-76
2022/12/31 07:48:41;;;;;;;;;;;;;;;11.53;78.92;97986.88;5047355;28;19929;-72
2022/12/31 07:51:11;;;;;;;;;;;;;;;11.50;79.21;97995.69;5047796;28;19999;-73
2022/12/31 07:53:40;;;;;;;;;;;;;;;11.62;78.85;97988.84;5041833;28;19933;-78
2022/12/31 07:56:32;;;;;;;;;;;;;;;11.68;78.65;97999.25;5028413;28;19933;-77
2022/12/31 07:59:02;;;;;;;;;;;;;;;11.70;78.76;97993.50;5050147;28;20291;-67
2022/12/31 08:01:32;;;;;;;;;;;;;;;11.88;78.06;97997.91;5041397;28;19932;-68
2022/12/31 08:04:01;;;;;;;;;;;;;;;12.00;78.11;97998.09;5043875;28;19925;-67
2022/12/31 08:06:32;;;;;;;;;;;;;;;12.01;78.26;97996.16;5040820;28;19924;-68
2022/12/31 08:09:03;;;;;;;;;;;;;;;12.22;77.67;97996.34;5043424;28;19975;-69
2022/12/31 08:11:32;;;;;;;;;;;;;;;12.27;77.40;97998.91;5049091;28;19929;-71
2022/12/31 08:14:01;;;;;;;;;;;;;;;12.51;76.75;97999.22;5045305;28;20277;-69
2022/12/31 08:16:29;;;;;;;;;;;;;;;12.44;76.96;97998.09;5048072;28;19925;-71
2022/12/31 08:18:57;;;;;;;;;;;;;;;12.48;77.07;97990.91;5048829;28;19984;-74
2022/12/31 08:21:31;;;;;;;;;;;;;;;12.56;76.59;97995.53;5029424;28;19933;-77
2022/12/31 08:24:05;;;;;;;;;;;;;;;12.56;76.42;98001.78;5055348;28;19932;-76
2022/12/31 08:26:35;;;;;;;;;;;;;;;12.77;75.60;98007.38;5052721;28;19925;-77
2022/12/31 08:29:15;;;;;;;;;;;;;;;12.63;76.17;98016.88;5075531;28;19947;-85
2022/12/31 08:31:46;;;;;;;;;;;;;;;12.57;76.59;98022.47;5072332;28;19936;-78
2022/12/31 08:34:16;;;;;;;;;;;;;;;12.75;75.70;98027.91;5031692;28;19933;-76
2022/12/31 08:36:45;;;;;;;;;;;;;;;12.89;75.15;98025.81;5050899;28;20224;-75
2022/12/31 08:39:18;;;;;;;;;;;;;;;12.98;74.60;98032.03;5049505;28;19925;-77
2022/12/31 08:41:47;;;;;;;;;;;;;;;13.01;74.27;98023.22;5043210;28;20009;-76
2022/12/31 08:44:17;;;;;;;;;;;;;;;13.11;74.10;98025.59;5039447;28;19929;-78
2022/12/31 08:46:49;;;;;;;;;;;;;;;13.12;74.06;98034.59;5048344;28;19936;-77
2022/12/31 08:49:18;;;;;;;;;;;;;;;13.21;73.87;98040.00;5045569;28;19953;-75
2022/12/31 08:51:46;;;;;;;;;;;;;;;13.30;73.43;98041.63;5048971;28;19929;-76
2022/12/31 08:54:14;;;;;;;;;;;;;;;13.28;73.67;98043.88;5048625;28;19924;-71
2022/12/31 08:56:45;;;;;;;;;;;;;;;13.55;72.44;98036.41;5050952;28;19935;-72
2022/12/31 08:59:34;;;;;;;;;;;;;;;13.47;72.65;98043.47;5052214;28;20006;-73
2022/12/31 09:04:38;;;;;;;;;;;;;;;13.49;72.82;98037.72;5004903;28;19932;-66
2022/12/31 09:07:06;;;;;;;;;;;;;;;13.62;72.16;98042.13;5024039;28;20265;-67
2022/12/31 09:09:37;;;;;;;;;;;;;;;13.71;71.61;98048.38;5036189;28;20298;-64
2022/12/31 09:12:08;;;;;;;;;;;;;;;13.70;71.70;98048.72;5032531;28;20388;-66
2022/12/31 09:14:40;;;;;;;;;;;;;;;13.74;71.99;98055.09;5033518;28;19936;-72
2022/12/31 09:17:10;;;;;;;;;;;;;;;13.92;71.29;98055.81;5022117;28;19929;-66
2022/12/31 09:19:38;;;;;;;;;;;;;;;13.99;70.50;98062.34;5029795;28;19925;-69
2022/12/31 09:22:06;;;;;;;;;;;;;;;14.07;70.22;98074.38;5010004;28;19932;-67
2022/12/31 09:24:34;;;;;;;;;;;;;;;14.11;70.05;98070.66;5030131;28;19925;-68
2022/12/31 09:27:27;;;;;;;;;;;;;;;14.06;69.84;98068.13;5030215;28;19937;-67
2022/12/31 09:29:59;;;;;;;;;;;;;;;14.00;70.48;98068.63;5032450;28;20344;-67
2022/12/31 09:32:30;;;;;;;;;;;;;;;14.09;70.28;98080.31;5033071;28;19935;-67
2022/12/31 09:35:02;;;;;;;;;;;;;;;14.15;69.78;98090.72;5028673;28;19929;-67
2022/12/31 09:37:36;;;;;;;;;;;;;;;14.29;68.67;98082.28;5029885;28;19937;-66
2022/12/31 09:40:33;;;;;;;;;;;;;;;14.10;69.49;98090.91;5012702;28;19929;-67
2022/12/31 09:43:14;;;;;;;;;;;;;;;14.14;70.18;98085.59;5023341;28;19952;-66
2022/12/31 09:49:03;;;;;;;;;;;;;;;14.15;69.58;98087.97;5028221;28;19925;-67
2022/12/31 09:51:32;;;;;;;;;;;;;;;14.10;69.60;98084.63;5008598;28;20302;-68
2022/12/31 09:54:21;;;;;;;;;;;;;;;14.06;69.86;98087.25;5025718;28;19932;-67
2022/12/31 09:56:51;;;;;;;;;;;;;;;14.19;69.47;98092.78;5024022;28;19924;-67
2022/12/31 09:59:28;;;;;;;;;;;;;;;14.12;69.62;98094.13;5032195;28;19969;-65
2022/12/31 10:01:59;;;;;;;;;;;;;;;14.15;69.44;98096.19;5031049;28;20394;-68
2022/12/31 10:04:42;;;;;;;;;;;;;;;14.08;69.74;98098.63;5031257;28;19925;-65
2022/12/31 10:07:18;;;;;;;;;;;;;;;14.10;69.42;98104.56;5009745;28;19932;-66
2022/12/31 10:09:49;;;;;;;;;;;;;;;14.22;69.02;98108.50;5029549;28;20020;-66
2022/12/31 10:12:23;;;;;;;;;;;;;;;14.28;69.15;98108.03;5033913;28;19929;-67
2022/12/31 10:15:00;;;;;;;;;;;;;;;14.33;68.55;98101.56;5033416;28;19925;-66
2022/12/31 10:17:54;;;;;;;;;;;;;;;14.44;68.42;98094.56;5029712;28;20390;-66
2022/12/31 10:20:37;;;;;;;;;;;;;;;14.41;68.27;98089.75;5015624;28;19929;-66
2022/12/31 10:23:28;;;;;;;;;;;;;;;14.54;67.59;98093.38;5019731;28;19952;-66
2022/12/31 10:26:14;;;;;;;;;;;;;;;14.54;67.76;98083.28;5014405;28;19932;-65
2022/12/31 10:28:49;;;;;;;;;;;;;;;14.70;66.56;98086.22;5032055;28;19925;-66
2022/12/31 10:31:17;;;;;;;;;;;;;;;14.70;66.73;98090.84;5009337;28;19965;-66
2022/12/31 10:33:45;;;;;;;;;;;;;;;14.66;66.89;98088.00;5026961;28;19925;-66
2022/12/31 10:36:16;;;;;;;;;;;;;;;14.55;67.27;98086.81;5031223;28;20298;-66
2022/12/31 10:38:47;;;;;;;;;;;;;;;14.58;67.64;98080.66;5033504;28;19972;-66
2022/12/31 10:41:39;;;;;;;;;;;;;;;14.56;67.37;98091.94;5033605;28;19926;-66
2022/12/31 10:44:22;;;;;;;;;;;;;;;14.57;67.25;98096.28;5016142;28;19925;-66
2022/12/31 10:46:58;;;;;;;;;;;;;;;14.59;67.15;98080.31;5003409;28;20302;-66
2022/12/31 10:49:56;;;;;;;;;;;;;;;14.66;67.16;98088.00;5031519;28;19925;-66
2022/12/31 10:52:40;;;;;;;;;;;;;;;14.61;67.02;98082.75;4970179;28;19933;-66
2022/12/31 10:55:17;;;;;;;;;;;;;;;14.62;67.27;98081.59;5004503;28;20280;-66
2022/12/31 10:58:14;;;;;;;;;;;;;;;14.71;67.20;98082.34;5032568;28;19933;-67
2022/12/31 11:00:45;;;;;;;;;;;;;;;14.76;66.47;98084.09;5005798;28;19932;-66
2022/12/31 11:03:31;;;;;;;;;;;;;;;14.84;66.08;98075.00;5026294;28;20268;-66
2022/12/31 11:06:26;;;;;;;;;;;;;;;14.84;66.25;98081.25;5025162;28;20377;-66
2022/12/31 11:09:12;;;;;;;;;;;;;;;14.89;65.79;98078.31;4967685;28;19930;-65
2022/12/31 11:11:42;;;;;;;;;;;;;;;14.96;65.80;98083.25;5030970;28;19928;-66
2022/12/31 11:14:35;;;;;;;;;;;;;;;15.08;64.83;98075.09;5026737;28;20298;-65
2022/12/31 11:17:14;;;;;;;;;;;;;;;15.07;65.18;98068.00;5026668;28;19929;-65
2022/12/31 11:19:44;;;;;;;;;;;;;;;15.09;65.27;98073.97;5029077;28;20323;-66
2022/12/31 11:22:27;;;;;;;;;;;;;;;15.05;65.42;98075.75;5030373;28;19948;-65
2022/12/31 11:27:59;;;;;;;;;;;;;;;15.11;65.12;98066.19;5031944;28;19963;-66
2022/12/31 11:30:29;;;;;;;;;;;;;;;15.22;65.00;98068.50;5029904;28;20019;-65
2022/12/31 11:33:01;;;;;;;;;;;;;;;15.24;65.07;98069.00;5026933;28;19947;-66
2022/12/31 11:35:32;;;;;;;;;;;;;;;15.32;64.37;98070.81;5027969;28;19925;-66
2022/12/31 11:38:02;;;;;;;;;;;;;;;15.27;64.57;98082.00;5028954;28;19924;-66
2022/12/31 11:40:40;;;;;;;;;;;;;;;15.31;64.28;98077.44;5028746;28;19940;-66
2022/12/31 11:43:18;;;;;;;;;;;;;;;15.28;64.50;98067.97;5026237;28;19929;-66
2022/12/31 11:49:11;;;;;;;;;;;;;;;15.44;63.87;98065.38;5023101;28;20329;-66
2022/12/31 11:51:44;;;;;;;;;;;;;;;15.39;64.08;98071.88;5032690;28;20349;-68
2022/12/31 11:54:45;;;;;;;;;;;;;;;15.43;63.65;98070.06;5028433;28;19932;-66
2022/12/31 11:57:18;;;;;;;;;;;;;;;15.50;63.61;98066.78;5034769;28;19967;-67
2022/12/31 11:59:46;;;;;;;;;;;;;;;15.50;63.61;98066.78;5025176;28;19932;-67
2022/12/31 12:02:21;;;;;;;;;;;;;;;15.67;63.16;98060.31;5029356;28;19932;-67
2022/12/31 12:04:49;;;;;;;;;;;;;;;15.67;63.16;98061.13;5024985;28;20397;-67
2022/12/31 12:07:17;;;;;;;;;;;;;;;15.66;63.19;98053.25;5011101;28;20382;-66
2022/12/31 12:09:45;;;;;;;;;;;;;;;15.71;63.13;98053.81;5031515;28;19925;-67
2022/12/31 12:12:40;;;;;;;;;;;;;;;15.66;63.07;98056.78;5004084;28;20434;-67
2022/12/31 12:15:09;;;;;;;;;;;;;;;15.83;62.62;98053.03;5029994;28;19936;-67
2022/12/31 12:17:38;;;;;;;;;;;;;;;15.88;62.16;98057.47;5026321;28;19987;-67
2022/12/31 12:20:12;;;;;;;;;;;;;;;15.73;62.72;98056.22;5001969;28;19925;-67
2022/12/31 12:22:48;;;;;;;;;;;;;;;15.67;62.88;98058.38;5024798;28;19964;-67
2022/12/31 12:25:20;;;;;;;;;;;;;;;15.70;62.68;98054.94;5029240;28;19929;-67
2022/12/31 12:27:52;;;;;;;;;;;;;;;15.73;62.43;98052.69;5011724;28;20688;-67
2022/12/31 12:30:22;;;;;;;;;;;;;;;15.85;62.74;98048.00;5021943;28;19933;-65
2022/12/31 12:32:51;;;;;;;;;;;;;;;15.89;62.18;98048.13;5024582;28;19952;-65
2022/12/31 12:35:22;;;;;;;;;;;;;;;15.84;62.79;98049.13;5029969;28;19926;-65
2022/12/31 12:38:00;;;;;;;;;;;;;;;15.83;62.95;98046.75;5019587;28;19948;-66
2022/12/31 12:40:29;;;;;;;;;;;;;;;15.82;62.43;98045.13;5032026;28;19947;-67
2022/12/31 12:43:03;;;;;;;;;;;;;;;15.90;62.24;98049.72;5015955;28;19932;-67
2022/12/31 12:45:36;;;;;;;;;;;;;;;15.81;62.40;98049.00;5030821;28;19977;-67
2022/12/31 12:48:07;;;;;;;;;;;;;;;15.90;62.06;98038.75;5029957;28;20352;-67
2022/12/31 12:50:36;;;;;;;;;;;;;;;15.88;62.14;98035.56;5013212;28;19937;-67
2022/12/31 12:53:08;;;;;;;;;;;;;;;15.80;62.37;98029.03;5013029;28;20517;-67
2022/12/31 12:58:36;;;;;;;;;;;;;;;15.77;63.01;98039.91;5029120;28;20340;-67
2022/12/31 13:01:06;;;;;;;;;;;;;;;15.79;62.98;98037.63;5013618;28;19929;-67
2022/12/31 13:03:43;;;;;;;;;;;;;;;15.76;62.91;98043.75;5030798;28;19925;-67
2022/12/31 13:06:33;;;;;;;;;;;;;;;15.66;63.33;98043.09;5033381;28;20016;-67
2022/12/31 13:09:03;;;;;;;;;;;;;;;15.78;63.16;98041.50;5033303;28;19925;-70
2022/12/31 13:11:33;;;;;;;;;;;;;;;15.86;62.50;98038.63;5034083;28;19929;-66
2022/12/31 13:14:03;;;;;;;;;;;;;;;15.79;62.93;98030.19;5031892;28;19933;-65
2022/12/31 13:16:34;;;;;;;;;;;;;;;15.70;63.36;98030.28;5033159;28;19956;-66
2022/12/31 13:19:03;;;;;;;;;;;;;;;15.65;63.63;98032.47;5034759;28;19933;-66
2022/12/31 13:21:33;;;;;;;;;;;;;;;15.70;63.54;98030.28;5035912;28;19936;-66
2022/12/31 13:24:02;;;;;;;;;;;;;;;15.68;63.30;98027.09;5033233;28;19931;-65
2022/12/31 13:26:34;;;;;;;;;;;;;;;15.70;63.30;98030.28;5028173;28;19931;-66
2022/12/31 13:29:04;;;;;;;;;;;;;;;15.75;63.15;98031.22;5010664;28;19941;-66
2022/12/31 13:31:34;;;;;;;;;;;;;;;15.59;63.63;98020.91;5030789;28;19925;-66
2022/12/31 13:34:04;;;;;;;;;;;;;;;15.68;63.48;98015.34;5015932;28;19972;-67
2022/12/31 13:36:32;;;;;;;;;;;;;;;15.68;63.17;98021.63;5017732;28;19925;-66
2022/12/31 13:39:00;;;;;;;;;;;;;;;15.53;64.08;98014.06;5033363;28;19936;-66
2022/12/31 13:41:30;;;;;;;;;;;;;;;15.58;63.77;98011.09;5034249;28;19932;-66
2022/12/31 13:44:02;;;;;;;;;;;;;;;15.56;63.98;98007.13;5033750;28;19940;-66
2022/12/31 13:46:34;;;;;;;;;;;;;;;15.39;64.39;98008.94;5027611;28;20027;-66
2022/12/31 13:49:03;;;;;;;;;;;;;;;15.46;64.17;98000.94;5030387;28;19926;-67
2022/12/31 13:51:35;;;;;;;;;;;;;;;15.40;64.26;98001.50;5012556;28;19925;-66
2022/12/31 13:54:03;;;;;;;;;;;;;;;15.30;64.84;98005.47;5030079;28;20245;-67
2022/12/31 13:56:34;;;;;;;;;;;;;;;15.23;65.14;98010.69;5025945;28;19932;-67
2022/12/31 13:59:04;;;;;;;;;;;;;;;15.15;65.04;98008.88;5012745;28;19925;-66